Time;durP1;ratioP1;P1;durP2;ratioP2;P2;SDS_P1;SDS_P2;PMS_P1;PMS_P2;Temp;Humidity;BMP_temperature;BMP_pressure;BME280_temperature;BME280_humidity;BME280_pressure;Samples;Min_cycle;Max_cycle;Signal;HPM_P1;HPM_P2
2023/09/18 00:00:45;;;;;;;31.92;17.77;;;;;;;19.38;69.89;95711.16;5038606;28;20040;-82
2023/09/18 00:03:11;;;;;;;21.63;17.83;;;;;;;19.40;70.06;95695.50;5039112;28;20143;-81
2023/09/18 00:05:36;;;;;;;26.92;18.55;;;;;;;19.43;69.50;95684.91;5039527;28;20021;-81
2023/09/18 00:08:02;;;;;;;30.10;18.80;;;;;;;19.65;69.26;95705.50;5038886;28;20025;-81
2023/09/18 00:10:28;;;;;;;28.05;19.33;;;;;;;19.09;70.00;95641.88;5038383;28;20456;-81
2023/09/18 00:12:54;;;;;;;23.35;18.17;;;;;;;19.67;69.83;95718.63;5039062;28;20473;-81
2023/09/18 00:15:20;;;;;;;25.30;19.73;;;;;;;19.72;69.69;95713.88;5038582;28;20030;-81
2023/09/18 00:17:45;;;;;;;28.80;19.02;;;;;;;19.63;69.62;95705.00;5039409;28;20037;-81
2023/09/18 00:20:11;;;;;;;25.23;18.83;;;;;;;19.73;69.88;95718.16;5038498;28;20116;-81
2023/09/18 00:22:37;;;;;;;21.27;17.90;;;;;;;19.68;69.47;95712.94;5039731;28;20029;-81
2023/09/18 00:25:03;;;;;;;23.85;17.35;;;;;;;19.62;69.43;95688.06;5039295;28;20040;-81
2023/09/18 00:27:29;;;;;;;21.30;17.02;;;;;;;19.77;69.22;95716.41;5037141;28;20416;-81
2023/09/18 00:29:55;;;;;;;25.70;18.20;;;;;;;19.35;69.56;95666.06;5038232;28;20404;-81
2023/09/18 00:32:20;;;;;;;23.17;18.17;;;;;;;19.71;69.53;95716.88;5037147;28;20097;-81
2023/09/18 00:34:46;;;;;;;24.58;18.27;;;;;;;19.49;69.03;95674.78;5038541;28;20487;-81
2023/09/18 00:37:12;;;;;;;27.80;18.50;;;;;;;19.32;69.13;95678.25;5038824;28;20038;-81
2023/09/18 00:39:38;;;;;;;28.20;19.42;;;;;;;19.47;69.56;95723.53;5036978;28;20048;-81
2023/09/18 00:42:03;;;;;;;25.25;19.67;;;;;;;19.40;69.84;95714.31;5038675;28;20120;-81
2023/09/18 00:44:29;;;;;;;28.65;21.00;;;;;;;19.35;69.54;95692.97;5038151;28;20119;-81
2023/09/18 00:46:55;;;;;;;34.53;21.55;;;;;;;19.48;69.08;95700.13;5038010;28;20029;-81
2023/09/18 00:49:22;;;;;;;29.13;20.63;;;;;;;19.34;69.21;95692.19;5036892;28;20066;-82
2023/09/18 00:51:49;;;;;;;29.02;20.98;;;;;;;19.44;69.08;95694.56;5037992;28;20091;-81
2023/09/18 00:54:18;;;;;;;27.98;20.92;;;;;;;19.64;68.70;95711.97;5036238;28;20131;-81
2023/09/18 00:56:44;;;;;;;30.73;20.63;;;;;;;19.62;68.33;95703.44;5037318;28;20518;-81
2023/09/18 00:59:10;;;;;;;28.83;18.98;;;;;;;19.41;68.62;95691.69;5038137;28;20045;-81
2023/09/18 01:01:36;;;;;;;27.88;18.80;;;;;;;19.67;68.62;95718.63;5038561;28;20086;-81
2023/09/18 01:04:01;;;;;;;25.63;17.88;;;;;;;19.55;68.85;95711.19;5038404;28;20041;-81
2023/09/18 01:06:30;;;;;;;25.50;17.90;;;;;;;19.71;68.47;95741.09;5038555;28;20529;-81
2023/09/18 01:08:56;;;;;;;23.92;17.27;;;;;;;19.68;68.80;95745.22;5036408;28;20389;-81
2023/09/18 01:11:30;;;;;;;26.55;17.48;;;;;;;19.53;68.49;95714.19;5054601;28;20061;-81
2023/09/18 01:14:16;;;;;;;27.35;16.05;;;;;;;19.67;68.49;95737.47;5040933;28;20036;-81
2023/09/18 01:16:50;;;;;;;23.02;15.07;;;;;;;19.42;69.02;95729.03;5058237;28;20033;-81
2023/09/18 01:19:16;;;;;;;22.13;15.07;;;;;;;19.35;68.76;95717.97;5040108;28;20051;-81
2023/09/18 01:21:45;;;;;;;18.27;14.45;;;;;;;19.27;68.52;95700.72;5041008;28;20032;-81
2023/09/18 01:24:10;;;;;;;23.17;14.73;;;;;;;19.66;68.45;95747.44;5057354;28;20029;-81
2023/09/18 01:26:35;;;;;;;18.95;13.13;;;;;;;19.40;68.12;95701.66;5055483;28;20083;-82
2023/09/18 01:29:02;;;;;;;20.35;13.82;;;;;;;19.16;68.81;95688.69;5039213;28;20036;-82
2023/09/18 01:31:27;;;;;;;19.83;13.65;;;;;;;19.33;68.31;95705.94;5040494;28;20093;-81
2023/09/18 01:33:54;;;;;;;20.52;13.93;;;;;;;19.02;68.53;95668.44;5059423;28;20092;-81
2023/09/18 01:36:20;;;;;;;23.67;13.68;;;;;;;18.88;68.24;95644.38;5057926;28;20487;-81
2023/09/18 01:38:46;;;;;;;23.48;13.88;;;;;;;19.53;68.43;95740.31;5055585;28;20040;-81
2023/09/18 01:41:13;;;;;;;20.50;13.80;;;;;;;19.43;68.28;95714.50;5038638;28;20037;-81
2023/09/18 01:43:38;;;;;;;23.17;14.23;;;;;;;19.48;67.74;95719.72;5056212;28;20037;-82
2023/09/18 01:46:05;;;;;;;17.13;12.43;;;;;;;19.54;68.11;95725.75;5056182;28;20036;-81
2023/09/18 01:48:30;;;;;;;22.85;12.73;;;;;;;19.38;68.42;95729.97;5038671;28;20041;-82
2023/09/18 01:50:55;;;;;;;18.60;13.85;;;;;;;19.41;68.47;95729.34;5039144;28;20033;-82
2023/09/18 01:53:21;;;;;;;19.00;12.85;;;;;;;19.31;68.61;95708.94;5039038;28;20128;-82
2023/09/18 01:55:47;;;;;;;18.75;12.57;;;;;;;19.26;68.59;95711.78;5038917;28;20021;-81
2023/09/18 01:58:14;;;;;;;22.25;13.50;;;;;;;19.36;68.35;95716.88;5056019;28;20033;-81
2023/09/18 02:00:39;;;;;;;19.02;12.70;;;;;;;19.46;68.37;95742.63;5038696;28;20044;-81
2023/09/18 02:03:05;;;;;;;17.08;13.15;;;;;;;19.42;68.67;95747.88;5056514;28;20029;-81
2023/09/18 02:05:30;;;;;;;20.25;13.52;;;;;;;19.56;67.98;95747.75;5056329;28;20037;-82
2023/09/18 02:07:56;;;;;;;21.67;14.27;;;;;;;19.42;68.04;95734.41;5039103;28;20033;-81
2023/09/18 02:10:21;;;;;;;25.90;14.35;;;;;;;19.50;67.61;95740.94;5056705;28;20071;-81
2023/09/18 02:12:47;;;;;;;23.20;14.05;;;;;;;19.46;67.84;95745.31;5038972;28;20045;-81
2023/09/18 02:15:12;;;;;;;26.38;14.65;;;;;;;19.57;67.76;95752.03;5055989;28;20043;-81
2023/09/18 02:17:38;;;;;;;20.77;14.57;;;;;;;19.41;67.87;95729.34;5038760;28;20135;-82
2023/09/18 02:20:11;;;;;;;22.30;15.00;;;;;;;19.59;67.76;95753.31;5038854;28;20037;-82
2023/09/18 02:22:37;;;;;;;19.00;14.35;;;;;;;19.44;67.98;95737.59;5038303;28;20513;-82
2023/09/18 02:25:04;;;;;;;21.27;15.30;;;;;;;19.61;67.53;95751.06;5038443;28;20499;-82
2023/09/18 02:27:29;;;;;;;23.45;16.30;;;;;;;19.28;67.71;95699.63;5038246;28;20032;-81
2023/09/18 02:29:55;;;;;;;23.27;14.40;;;;;;;19.14;67.49;95688.22;5038092;28;20056;-82
2023/09/18 02:32:20;;;;;;;25.52;13.95;;;;;;;19.46;67.26;95729.97;5041399;28;20450;-82
2023/09/18 02:34:46;;;;;;;27.40;14.73;;;;;;;19.24;68.40;95751.63;5041606;28;20083;-82
2023/09/18 02:37:11;;;;;;;20.98;14.35;;;;;;;19.17;68.33;95727.91;5042576;28;20085;-82
2023/09/18 02:39:37;;;;;;;20.20;14.32;;;;;;;19.34;68.00;95735.22;5041857;28;20040;-81
2023/09/18 02:42:02;;;;;;;24.70;14.18;;;;;;;19.17;67.75;95705.59;5043306;28;20415;-81
2023/09/18 02:44:28;;;;;;;18.25;13.27;;;;;;;19.41;67.82;95748.19;5042969;28;20040;-81
2023/09/18 02:46:53;;;;;;;19.98;12.52;;;;;;;19.12;67.80;95711.13;5059652;28;20029;-81
2023/09/18 02:49:19;;;;;;;18.33;12.73;;;;;;;19.21;67.77;95725.38;5042198;28;20130;-81
2023/09/18 02:51:44;;;;;;;18.00;11.77;;;;;;;19.30;67.74;95736.16;5060494;28;20047;-82
2023/09/18 02:54:10;;;;;;;17.42;12.00;;;;;;;19.22;67.37;95717.00;5041288;28;20120;-82
2023/09/18 02:56:35;;;;;;;20.45;12.23;;;;;;;19.26;67.72;95723.34;5060430;28;20055;-78
2023/09/18 02:59:00;;;;;;;19.55;12.23;;;;;;;19.27;67.39;95722.22;5043254;28;20025;-78
2023/09/18 03:01:26;;;;;;;19.63;11.70;;;;;;;19.20;67.21;95729.19;5061397;28;20411;-78
2023/09/18 03:03:52;;;;;;;18.33;11.95;;;;;;;19.26;67.92;95744.84;5076414;28;20052;-77
2023/09/18 03:06:17;;;;;;;16.65;11.40;;;;;;;18.73;67.57;95669.81;5061162;28;20040;-78
2023/09/18 03:08:43;;;;;;;24.70;11.65;;;;;;;19.23;67.42;95737.41;5076175;28;20037;-78
2023/09/18 03:11:13;;;;;;;19.73;11.63;;;;;;;19.34;67.63;95761.31;5036979;28;20049;-78
2023/09/18 03:13:49;;;;;;;16.92;11.73;;;;;;;19.33;67.48;95757.81;5039574;28;20068;-78
2023/09/18 03:16:14;;;;;;;24.10;11.45;;;;;;;19.21;67.46;95741.53;5041577;28;20033;-78
2023/09/18 03:18:40;;;;;;;18.60;11.18;;;;;;;19.32;67.62;95756.22;5040477;28;20093;-78
2023/09/18 03:21:05;;;;;;;22.30;11.80;;;;;;;19.36;67.46;95754.50;5039453;28;20035;-78
2023/09/18 03:23:31;;;;;;;14.73;11.05;;;;;;;19.12;67.32;95720.00;5040736;28;20047;-79
2023/09/18 03:25:56;;;;;;;19.33;11.35;;;;;;;19.33;67.47;95755.13;5039564;28;20029;-78
2023/09/18 03:28:22;;;;;;;17.15;11.45;;;;;;;19.02;67.58;95711.44;5073304;28;20136;-78
2023/09/18 03:30:50;;;;;;;18.52;11.60;;;;;;;19.12;67.88;95717.31;5072311;28;20032;-79
2023/09/18 03:33:15;;;;;;;21.00;12.20;;;;;;;19.06;67.77;95712.41;5038471;28;20030;-79
2023/09/18 03:35:49;;;;;;;17.83;11.80;;;;;;;19.25;67.67;95735.19;5040753;28;20043;-78
2023/09/18 03:38:14;;;;;;;16.33;12.07;;;;;;;19.21;67.63;95734.25;5039440;28;20384;-78
2023/09/18 03:40:40;;;;;;;18.70;11.88;;;;;;;19.22;67.82;95732.34;5041231;28;20032;-77
2023/09/18 03:43:07;;;;;;;16.95;12.02;;;;;;;19.18;67.79;95734.06;5040449;28;20029;-78
2023/09/18 03:45:32;;;;;;;20.75;13.50;;;;;;;19.11;67.88;95726.47;5039686;28;20026;-78
2023/09/18 03:47:58;;;;;;;23.92;14.27;;;;;;;18.94;67.87;95698.75;5039945;28;20025;-78
2023/09/18 03:50:23;;;;;;;20.50;13.40;;;;;;;19.07;68.32;95732.81;5039676;28;20048;-78
2023/09/18 03:52:49;;;;;;;23.27;13.65;;;;;;;19.07;68.31;95722.81;5040379;28;20036;-78
2023/09/18 03:55:14;;;;;;;24.77;13.98;;;;;;;18.77;68.02;95681.50;5040062;28;20097;-78
2023/09/18 03:57:42;;;;;;;24.10;14.68;;;;;;;18.99;68.18;95707.50;5072670;28;20021;-77
2023/09/18 04:00:08;;;;;;;20.85;13.95;;;;;;;19.02;68.07;95709.53;5039061;28;20074;-78
2023/09/18 04:02:34;;;;;;;23.25;15.25;;;;;;;18.64;68.48;95677.03;5037540;28;20033;-78
2023/09/18 04:05:00;;;;;;;23.95;16.20;;;;;;;18.96;68.51;95723.44;5058023;28;20072;-80
2023/09/18 04:07:25;;;;;;;24.90;14.90;;;;;;;18.79;68.72;95703.47;5054195;28;20040;-79
2023/09/18 04:09:51;;;;;;;28.17;15.80;;;;;;;18.85;68.66;95704.13;5055419;28;20060;-79
2023/09/18 04:12:16;;;;;;;36.05;17.30;;;;;;;18.78;68.65;95701.09;5033740;28;20068;-79
2023/09/18 04:14:42;;;;;;;25.58;17.80;;;;;;;18.83;68.95;95723.25;5035823;28;20114;-79
2023/09/18 04:17:07;;;;;;;25.48;17.83;;;;;;;18.96;68.83;95731.50;5031788;28;20029;-81
2023/09/18 04:19:33;;;;;;;30.60;18.13;;;;;;;18.94;68.87;95734.50;5039488;28;20036;-80
2023/09/18 04:21:59;;;;;;;30.50;18.23;;;;;;;18.81;68.30;95716.59;5026299;28;20041;-80
2023/09/18 04:24:26;;;;;;;30.20;18.83;;;;;;;18.94;68.70;95742.56;5043534;28;20041;-81
2023/09/18 04:26:51;;;;;;;32.55;18.05;;;;;;;18.71;68.76;95716.88;5050622;28;20053;-79
2023/09/18 04:29:18;;;;;;;27.52;16.55;;;;;;;18.65;68.72;95699.34;5036985;28;20154;-81
2023/09/18 04:31:44;;;;;;;28.98;18.50;;;;;;;18.83;68.69;95736.69;4998014;28;20036;-81
2023/09/18 04:34:10;;;;;;;24.70;17.05;;;;;;;18.82;68.70;95718.19;5005128;28;21811;-81
2023/09/18 04:36:37;;;;;;;27.25;16.85;;;;;;;18.89;68.70;95732.75;5001975;28;20061;-80
2023/09/18 04:39:04;;;;;;;30.60;17.30;;;;;;;18.70;69.01;95717.97;5012671;28;20134;-80
2023/09/18 04:41:30;;;;;;;28.77;17.52;;;;;;;18.80;69.19;95741.91;4997850;28;20047;-80
2023/09/18 04:43:56;;;;;;;24.20;15.85;;;;;;;18.85;69.06;95745.22;5009916;28;20466;-80
2023/09/18 04:46:21;;;;;;;34.30;17.38;;;;;;;18.77;68.96;95726.38;5019951;28;20057;-80
2023/09/18 04:48:47;;;;;;;31.08;16.42;;;;;;;18.91;68.92;95753.94;5002497;28;20463;-80
2023/09/18 04:51:12;;;;;;;27.63;16.42;;;;;;;18.85;69.01;95742.53;5004377;28;20048;-80
2023/09/18 04:53:38;;;;;;;27.02;17.50;;;;;;;18.59;68.86;95693.31;5008963;28;20076;-80
2023/09/18 04:56:03;;;;;;;25.70;17.13;;;;;;;18.81;68.68;95716.59;5007854;28;20037;-80
2023/09/18 04:58:30;;;;;;;33.88;16.88;;;;;;;18.99;69.00;95752.41;5015767;28;20037;-80
2023/09/18 05:00:57;;;;;;;34.17;18.38;;;;;;;18.45;69.20;95665.75;5004108;28;20336;-80
2023/09/18 05:03:23;;;;;;;30.33;17.60;;;;;;;18.52;69.09;95683.00;5007066;28;20079;-80
2023/09/18 05:05:48;;;;;;;26.60;17.60;;;;;;;18.37;69.42;95656.56;5004422;28;20050;-80
2023/09/18 05:08:14;;;;;;;28.90;17.95;;;;;;;18.77;69.26;95723.69;5024502;28;20025;-79
2023/09/18 05:10:39;;;;;;;35.33;19.65;;;;;;;18.88;69.56;95736.53;5027125;28;20049;-79
2023/09/18 05:13:05;;;;;;;29.98;18.88;;;;;;;18.38;69.28;95654.69;5015493;28;20415;-80
2023/09/18 05:15:31;;;;;;;35.95;18.40;;;;;;;19.06;68.78;95752.72;5013561;28;20541;-79
2023/09/18 05:17:58;;;;;;;31.95;17.92;;;;;;;19.11;68.69;95747.19;5011396;28;20043;-78
2023/09/18 05:20:28;;;;;;;29.17;17.42;;;;;;;18.72;68.69;95697.78;5022726;28;20056;-78
2023/09/18 05:22:55;;;;;;;30.10;17.50;;;;;;;18.89;69.05;95727.38;5022815;28;20043;-79
2023/09/18 05:25:22;;;;;;;25.60;15.80;;;;;;;18.54;68.63;95663.09;5026421;28;20041;-79
2023/09/18 05:27:56;;;;;;;28.80;16.38;;;;;;;19.08;68.87;95759.34;5030081;28;20036;-78
2023/09/18 05:30:27;;;;;;;28.30;17.88;;;;;;;18.98;69.60;95758.88;5023357;28;20045;-79
2023/09/18 05:32:53;;;;;;;;;;;;;;;19.01;69.17;95760.91;5045805;28;20137;-80
2023/09/18 05:35:18;;;;;;;30.85;17.85;;;;;;;19.09;69.23;95760.94;5062171;28;19921;-80
2023/09/18 05:37:44;;;;;;;30.80;18.40;;;;;;;19.21;68.57;95758.44;5019618;28;20047;-80
2023/09/18 05:40:11;;;;;;;28.90;18.30;;;;;;;19.21;68.68;95760.34;5016262;28;20769;-78
2023/09/18 05:42:38;;;;;;;33.00;18.45;;;;;;;18.96;69.08;95729.59;5027152;28;20037;-78
2023/09/18 05:45:04;;;;;;;31.73;19.27;;;;;;;19.23;68.90;95764.28;5047430;28;20411;-78
2023/09/18 05:47:33;;;;;;;37.78;19.63;;;;;;;19.26;69.08;95762.88;5023493;28;20086;-79
2023/09/18 05:49:59;;;;;;;32.60;19.83;;;;;;;19.18;68.59;95740.25;5027471;28;20037;-79
2023/09/18 05:52:25;;;;;;;30.25;17.80;;;;;;;19.22;68.50;95737.75;5039583;28;20041;-79
2023/09/18 05:54:51;;;;;;;29.23;19.02;;;;;;;19.06;69.41;95740.06;5044446;28;20044;-78
2023/09/18 05:57:18;;;;;;;27.60;18.58;;;;;;;19.06;69.71;95761.59;5046435;28;20073;-78
2023/09/18 05:59:46;;;;;;;33.85;19.30;;;;;;;18.86;69.09;95719.16;5027677;28;20029;-80
2023/09/18 06:02:12;;;;;;;31.38;18.45;;;;;;;18.97;69.51;95731.19;5032696;28;21821;-79
2023/09/18 06:04:39;;;;;;;31.40;17.80;;;;;;;19.33;69.22;95767.78;5017726;28;20043;-82
2023/09/18 06:07:04;;;;;;;32.97;17.08;;;;;;;19.28;68.77;95748.03;5036952;28;20541;-79
2023/09/18 06:09:30;;;;;;;26.10;16.27;;;;;;;19.31;68.50;95740.41;5028254;28;20154;-79
2023/09/18 06:11:55;;;;;;;29.13;16.33;;;;;;;19.19;68.25;95711.47;5018053;28;20059;-78
2023/09/18 06:14:21;;;;;;;30.60;17.23;;;;;;;19.45;67.62;95741.06;5028149;28;20033;-80
2023/09/18 06:16:46;;;;;;;28.25;16.95;;;;;;;19.59;67.66;95752.50;5029157;28;20103;-78
2023/09/18 06:19:12;;;;;;;27.33;15.57;;;;;;;19.75;67.33;95766.28;5034875;28;20583;-79
2023/09/18 06:21:37;;;;;;;24.42;16.35;;;;;;;18.92;67.61;95658.75;5044902;28;20041;-81
2023/09/18 06:24:03;;;;;;;22.25;16.55;;;;;;;19.65;67.91;95764.69;5034119;28;20045;-79
2023/09/18 06:26:29;;;;;;;24.05;15.00;;;;;;;19.78;67.17;95777.19;5021828;28;20477;-81
2023/09/18 06:28:54;;;;;;;21.95;14.80;;;;;;;19.83;66.95;95766.28;5023604;28;20033;-80
2023/09/18 06:31:20;;;;;;;28.08;16.65;;;;;;;19.59;66.87;95731.78;5023068;28;20044;-82
2023/09/18 06:33:46;;;;;;;27.05;17.02;;;;;;;19.89;66.54;95773.06;5021767;28;20044;-82
2023/09/18 06:36:13;;;;;;;27.77;17.02;;;;;;;19.81;66.06;95738.09;5015933;28;20511;-87
2023/09/18 06:38:38;;;;;;;27.98;18.90;;;;;;;19.41;65.67;95670.19;5029260;28;20047;-86
2023/09/18 06:41:04;;;;;;;27.98;17.50;;;;;;;20.06;65.74;95779.56;5015565;28;20041;-88
2023/09/18 06:43:29;;;;;;;31.38;18.25;;;;;;;20.14;65.54;95773.38;5020572;28;20107;-83
2023/09/18 06:45:57;;;;;;;24.73;16.40;;;;;;;20.14;65.05;95776.06;5036031;28;20025;-83
2023/09/18 06:48:23;;;;;;;25.92;17.50;;;;;;;19.72;64.95;95694.25;5034208;28;20040;-84
2023/09/18 06:50:49;;;;;;;31.23;17.63;;;;;;;19.78;65.23;95717.97;5026626;28;20046;-84
2023/09/18 06:53:14;;;;;;;29.23;17.38;;;;;;;19.35;64.87;95631.91;5024076;28;20119;-84
2023/09/18 06:55:40;;;;;;;28.27;18.60;;;;;;;20.14;65.69;95776.06;5032675;28;20045;-82
2023/09/18 06:58:05;;;;;;;26.83;17.45;;;;;;;19.91;65.36;95719.69;5021744;28;20046;-84
2023/09/18 07:00:31;;;;;;;28.38;16.95;;;;;;;19.97;65.44;95731.91;5030521;28;20046;-85
2023/09/18 07:02:57;;;;;;;23.27;16.40;;;;;;;20.25;65.05;95761.13;5025014;28;20037;-81
2023/09/18 07:05:22;;;;;;;33.40;18.35;;;;;;;20.36;65.03;95774.00;5029718;28;20075;-80
2023/09/18 07:07:48;;;;;;;26.40;18.40;;;;;;;19.95;65.02;95701.81;5034384;28;20476;-79
2023/09/18 07:10:14;;;;;;;28.42;17.23;;;;;;;20.25;64.89;95748.47;5044375;28;21242;-79
2023/09/18 07:12:39;;;;;;;28.92;18.50;;;;;;;20.27;64.25;95734.69;5041912;28;20033;-80
2023/09/18 07:15:06;;;;;;;27.08;17.58;;;;;;;20.52;64.00;95758.06;5032463;28;20056;-79
2023/09/18 07:17:32;;;;;;;30.40;17.85;;;;;;;20.33;63.79;95726.13;5061674;28;20036;-80
2023/09/18 07:19:57;;;;;;;27.90;17.95;;;;;;;20.32;63.79;95737.19;5027938;28;20051;-80
2023/09/18 07:22:23;;;;;;;29.50;17.15;;;;;;;20.57;63.28;95767.91;5056635;28;20060;-80
2023/09/18 07:24:52;;;;;;;24.00;16.83;;;;;;;20.68;63.44;95769.91;5029462;28;20407;-80
2023/09/18 07:27:20;;;;;;;25.95;18.25;;;;;;;20.39;63.69;95710.59;5042045;28;20033;-81
2023/09/18 07:29:45;;;;;;;28.83;17.70;;;;;;;20.55;63.25;95721.63;5039172;28;20040;-79
2023/09/18 07:32:11;;;;;;;28.38;18.73;;;;;;;20.86;63.32;95770.63;5052313;28;20021;-81
2023/09/18 07:34:37;;;;;;;27.17;19.33;;;;;;;20.93;63.31;95778.22;5064185;28;20074;-78
2023/09/18 07:37:02;;;;;;;29.15;20.25;;;;;;;21.00;62.87;95773.09;5046969;28;20056;-78
2023/09/18 07:39:28;;;;;;;28.20;19.02;;;;;;;21.03;62.07;95772.47;5031883;28;20387;-78
2023/09/18 07:41:55;;;;;;;27.98;17.90;;;;;;;21.10;62.05;95772.75;5055756;28;20490;-79
2023/09/18 07:44:21;;;;;;;29.67;17.75;;;;;;;21.03;61.80;95749.00;5039622;28;20043;-79
2023/09/18 07:46:47;;;;;;;30.17;18.83;;;;;;;21.15;61.87;95769.84;5033520;28;20108;-79
2023/09/18 07:49:13;;;;;;;31.70;18.20;;;;;;;20.51;61.96;95677.59;5039916;28;20124;-79
2023/09/18 07:51:39;;;;;;;34.78;19.80;;;;;;;21.13;61.92;95775.56;5038901;28;20049;-79
2023/09/18 07:54:04;;;;;;;25.08;17.75;;;;;;;21.25;61.69;95771.41;5039620;28;20495;-79
2023/09/18 07:56:33;;;;;;;29.15;19.58;;;;;;;20.99;61.47;95741.84;5060952;28;20104;-80
2023/09/18 07:58:58;;;;;;;29.58;16.90;;;;;;;21.21;60.87;95776.66;5023539;28;20048;-78
2023/09/18 08:01:24;;;;;;;23.52;16.80;;;;;;;21.29;60.74;95767.72;5034388;28;20040;-78
2023/09/18 08:03:49;;;;;;;26.00;17.65;;;;;;;21.12;60.72;95733.56;5043467;28;20043;-81
2023/09/18 08:06:18;;;;;;;23.85;15.27;;;;;;;20.93;60.41;95713.50;5054665;28;20033;-79
2023/09/18 08:08:43;;;;;;;24.90;16.58;;;;;;;21.01;60.24;95708.06;5028776;28;20029;-80
2023/09/18 08:11:09;;;;;;;22.58;15.63;;;;;;;20.85;60.97;95701.66;5040150;28;20144;-78
2023/09/18 08:13:35;;;;;;;21.85;16.50;;;;;;;21.01;60.66;95709.97;5028741;28;20064;-79
2023/09/18 08:16:01;;;;;;;25.50;17.48;;;;;;;21.23;60.43;95746.66;5049910;28;20112;-79
2023/09/18 08:18:27;;;;;;;24.70;16.65;;;;;;;20.95;60.21;95681.63;5027149;28;20044;-78
2023/09/18 08:20:54;;;;;;;22.30;14.95;;;;;;;21.55;59.82;95762.16;5027985;28;20551;-79
2023/09/18 08:23:20;;;;;;;30.38;16.75;;;;;;;21.54;59.71;95752.50;5055498;28;20114;-79
2023/09/18 08:25:46;;;;;;;24.70;15.70;;;;;;;21.61;59.05;95746.56;5043045;28;20045;-77
2023/09/18 08:28:15;;;;;;;20.77;15.95;;;;;;;21.42;58.94;95715.44;5010109;28;20464;-78
2023/09/18 08:30:40;;;;;;;24.70;16.00;;;;;;;21.66;58.62;95736.38;5015005;28;20036;-79
2023/09/18 08:33:06;;;;;;;25.70;15.48;;;;;;;21.64;58.60;95737.81;5031045;28;20067;-79
2023/09/18 08:35:32;;;;;;;22.88;15.48;;;;;;;21.60;58.86;95726.88;5005258;28;20100;-78
2023/09/18 08:37:57;;;;;;;27.50;16.10;;;;;;;21.52;58.47;95696.13;5008964;28;20045;-78
2023/09/18 08:40:23;;;;;;;23.85;15.65;;;;;;;21.74;58.91;95748.22;5018623;28;20732;-79
2023/09/18 08:42:53;;;;;;;21.90;14.93;;;;;;;21.80;58.40;95741.50;5028282;28;20151;-81
2023/09/18 08:45:25;;;;;;;28.80;16.40;;;;;;;21.86;58.72;95735.56;5015116;28;20036;-79
2023/09/18 08:47:53;;;;;;;26.05;17.70;;;;;;;21.72;59.17;95699.16;5046631;28;20907;-78
2023/09/18 08:50:20;;;;;;;23.05;16.40;;;;;;;21.91;57.89;95705.63;5045569;28;20029;-79
2023/09/18 08:52:47;;;;;;;24.55;16.02;;;;;;;21.97;57.98;95722.44;5023721;28;20371;-75
2023/09/18 08:55:13;;;;;;;24.45;15.98;;;;;;;21.97;57.84;95719.75;5008378;28;20504;-74
2023/09/18 08:57:41;;;;;;;30.77;17.55;;;;;;;21.81;58.14;95691.78;5021191;28;20052;-78
2023/09/18 09:00:08;;;;;;;25.73;15.98;;;;;;;22.01;58.27;95711.78;5046006;28;20032;-77
2023/09/18 09:02:34;;;;;;;21.83;15.15;;;;;;;21.98;57.24;95701.63;5029705;28;20029;-77
2023/09/18 09:04:59;;;;;;;21.80;14.40;;;;;;;22.20;56.40;95714.78;5043083;28;20456;-79
2023/09/18 09:07:26;;;;;;;22.52;15.13;;;;;;;22.04;56.24;95679.50;5019971;28;20052;-81
2023/09/18 09:09:51;;;;;;;19.50;13.05;;;;;;;22.26;56.16;95710.72;5008222;28;20036;-78
2023/09/18 09:13:06;;;;;;;21.05;14.52;;;;;;;22.36;56.54;95720.31;5026203;28;20204;-76
2023/09/18 09:15:45;;;;;;;24.73;14.65;;;;;;;22.31;56.18;95705.09;5024315;28;20061;-79
2023/09/18 09:18:12;;;;;;;23.98;14.43;;;;;;;22.58;55.53;95725.31;5017934;28;20752;-81
2023/09/18 09:20:37;;;;;;;22.70;14.38;;;;;;;22.41;54.83;95696.56;5036220;28;20044;-79
2023/09/18 09:23:04;;;;;;;24.05;14.43;;;;;;;22.51;54.98;95679.91;5035475;28;20045;-76
2023/09/18 09:25:33;;;;;;;28.15;15.85;;;;;;;22.84;55.21;95720.38;5039978;28;20143;-77
2023/09/18 09:28:00;;;;;;;24.13;13.00;;;;;;;22.80;53.94;95699.78;5034693;28;20017;-76
2023/09/18 09:30:27;;;;;;;17.65;12.20;;;;;;;22.14;53.64;95592.63;5045607;22;20057;-81
2023/09/18 09:32:56;;;;;;;18.45;10.88;;;;;;;22.91;52.92;95717.13;4992008;28;20029;-82
2023/09/18 09:35:27;;;;;;;17.88;11.07;;;;;;;22.71;52.66;95681.72;4993841;28;20040;-80
2023/09/18 09:37:57;;;;;;;17.65;12.00;;;;;;;22.50;53.20;95628.91;5024923;28;20100;-80
2023/09/18 09:40:25;;;;;;;19.45;13.10;;;;;;;23.12;53.88;95708.88;4994613;28;20050;-81
2023/09/18 09:43:00;;;;;;;16.90;12.35;;;;;;;23.15;52.84;95698.16;4972816;28;20033;-80
2023/09/18 09:45:28;;;;;;;22.35;13.65;;;;;;;22.97;52.88;95659.75;4993451;28;20078;-81
2023/09/18 09:47:55;;;;;;;17.17;11.93;;;;;;;23.18;52.36;95669.66;4995477;28;20109;-80
2023/09/18 09:50:21;;;;;;;17.80;12.07;;;;;;;23.41;51.93;95690.47;5004819;28;20042;-81
2023/09/18 09:52:49;;;;;;;17.65;11.52;;;;;;;23.54;51.98;95690.44;4981706;28;20068;-80
2023/09/18 09:55:28;;;;;;;16.75;10.68;;;;;;;23.83;51.56;95690.09;5018420;28;20038;-80
2023/09/18 09:57:59;;;;;;;16.80;10.57;;;;;;;24.43;50.59;95686.28;4993427;28;20050;-85
2023/09/18 10:00:30;;;;;;;15.37;10.17;;;;;;;25.11;47.75;95688.72;4999780;28;20715;-82
2023/09/18 10:03:28;;;;;;;;;;;;;;;;;;;;;
2023/09/18 10:05:57;;;;;;;16.55;9.30;;;;;;;27.05;42.90;95676.47;4996603;28;20042;-84
2023/09/18 10:08:26;;;;;;;15.25;9.45;;;;;;;27.58;40.56;95612.63;4978762;28;20034;-81
2023/09/18 10:10:53;;;;;;;19.05;10.15;;;;;;;28.30;40.16;95674.94;5001538;28;20592;-81
2023/09/18 10:13:49;;;;;;;11.88;8.10;;;;;;;29.04;38.19;95672.09;4996886;28;20049;-80
2023/09/18 10:16:20;;;;;;;11.10;8.05;;;;;;;29.84;36.62;95656.50;5010252;28;20342;-82
2023/09/18 10:18:59;;;;;;;17.40;9.00;;;;;;;30.26;36.06;95658.63;4986665;28;20101;-83
2023/09/18 10:21:34;;;;;;;17.42;8.95;;;;;;;30.94;35.37;95655.91;4973162;28;20084;-83
2023/09/18 10:24:27;;;;;;;19.13;7.88;;;;;;;30.96;34.20;95598.81;4989639;28;20038;-83
2023/09/18 10:27:03;;;;;;;15.95;7.03;;;;;;;31.57;33.29;95666.00;4942069;28;20837;-82
2023/09/18 10:29:30;;;;;;;9.15;7.88;;;;;;;31.90;32.70;95661.16;4979125;28;20136;-81
2023/09/18 10:31:57;;;;;;;10.93;8.00;;;;;;;31.55;32.38;95599.03;4997878;28;20141;-81
2023/09/18 10:34:23;;;;;;;11.95;6.95;;;;;;;31.88;32.09;95604.00;4988744;28;20049;-81
2023/09/18 10:36:57;;;;;;;10.13;7.22;;;;;;;32.05;32.19;95625.03;4999903;28;20393;-81
2023/09/18 10:39:28;;;;;;;9.82;6.65;;;;;;;32.18;31.44;95606.19;5001216;28;20040;-80
2023/09/18 10:41:55;;;;;;;;;;;;;;;32.35;31.63;95640.94;4988918;28;20925;-81
2023/09/18 10:44:24;;;;;;;12.68;5.63;;;;;;;32.66;30.54;95625.41;4969286;28;21206;-81
2023/09/18 10:46:51;;;;;;;9.85;5.60;;;;;;;32.58;30.83;95623.91;5007628;28;20030;-82
2023/09/18 10:49:20;;;;;;;14.73;6.00;;;;;;;31.92;31.83;95596.53;5017870;28;20033;-81
2023/09/18 10:51:47;;;;;;;13.32;5.47;;;;;;;32.39;31.18;95627.22;4992460;28;20038;-81
2023/09/18 10:54:21;;;;;;;12.98;6.68;;;;;;;32.48;30.76;95597.34;5013687;28;20034;-82
2023/09/18 10:56:47;;;;;;;10.75;5.65;;;;;;;32.33;31.48;95571.19;5007001;28;20029;-82
2023/09/18 10:59:14;;;;;;;11.63;5.50;;;;;;;32.20;31.56;95610.06;5016964;28;20037;-81
2023/09/18 11:01:40;;;;;;;32.50;6.10;;;;;;;32.17;31.48;95610.91;5011716;28;20036;-81
2023/09/18 11:04:09;;;;;;;10.55;5.18;;;;;;;32.19;30.84;95597.53;4984037;28;20025;-81
2023/09/18 11:07:21;;;;;;;11.52;4.72;;;;;;;32.33;31.19;95615.09;4992992;28;20041;-81
2023/09/18 11:09:46;;;;;;;9.95;5.20;;;;;;;32.39;30.82;95597.81;4910857;29;20097;-81
2023/09/18 11:12:15;;;;;;;18.25;5.75;;;;;;;32.78;30.15;95604.97;4993242;28;20053;-81
2023/09/18 11:14:45;;;;;;;12.63;5.30;;;;;;;32.83;29.83;95590.78;4979506;28;20042;-81
2023/09/18 11:17:34;;;;;;;14.63;5.85;;;;;;;33.01;29.97;95588.66;4990483;28;20102;-82
2023/09/18 11:20:15;;;;;;;13.90;5.40;;;;;;;33.11;29.20;95595.22;4987374;28;20038;-82